createdAt,value
2019-05-05T00:01:45.106Z,84.06
2019-05-05T00:04:36.216Z,84.11
2019-05-05T00:07:05.042Z,83.30
2019-05-05T00:09:34.707Z,83.00
2019-05-05T00:12:21.618Z,83.47
2019-05-05T00:15:06.660Z,82.64
2019-05-05T00:17:35.563Z,83.70
2019-05-05T00:20:05.305Z,83.37
2019-05-05T00:22:35.039Z,82.91
2019-05-05T00:25:05.076Z,83.52
2019-05-05T00:27:34.706Z,83.32
2019-05-05T00:30:06.573Z,82.49
2019-05-05T00:32:35.371Z,82.69
2019-05-05T00:35:14.875Z,82.78
2019-05-05T00:37:45.079Z,83.55
2019-05-05T00:40:14.298Z,82.69
2019-05-05T00:42:43.093Z,83.05
2019-05-05T00:45:12.022Z,82.56
2019-05-05T00:47:54.272Z,82.75
2019-05-05T00:50:25.265Z,82.75
2019-05-05T00:52:55.078Z,83.03
2019-05-05T00:55:24.456Z,82.66
2019-05-05T00:57:54.835Z,82.62
2019-05-05T01:00:47.051Z,83.35
2019-05-05T01:03:28.086Z,83.63
2019-05-05T01:06:25.665Z,83.67
2019-05-05T01:08:55.085Z,82.84
2019-05-05T01:11:25.092Z,84.03
2019-05-05T01:13:56.237Z,82.84
2019-05-05T01:16:25.470Z,83.78
2019-05-05T01:18:55.373Z,83.76
2019-05-05T01:21:24.595Z,82.74
2019-05-05T01:23:54.837Z,83.17
2019-05-05T01:26:24.901Z,82.19
2019-05-05T01:28:56.173Z,82.86
2019-05-05T01:31:25.282Z,82.97
2019-05-05T01:34:14.952Z,82.77
2019-05-05T01:36:45.148Z,83.46
2019-05-05T01:39:39.424Z,82.66
2019-05-05T01:42:14.316Z,83.55
2019-05-05T01:44:44.782Z,83.88
2019-05-05T01:47:14.798Z,84.47
2019-05-05T01:49:45.270Z,84.76
2019-05-05T01:52:15.009Z,84.77
2019-05-05T01:54:44.732Z,85.92
2019-05-05T01:57:14.792Z,85.60
2019-05-05T01:59:44.879Z,85.66
2019-05-05T02:02:14.636Z,84.89
2019-05-05T02:04:44.884Z,84.87
2019-05-05T02:07:14.457Z,84.49
2019-05-05T02:09:44.847Z,84.26
2019-05-05T02:12:15.841Z,84.42
2019-05-05T02:14:44.609Z,84.88
2019-05-05T02:17:14.455Z,84.83
2019-05-05T02:19:44.322Z,84.68
2019-05-05T02:22:14.713Z,84.69
2019-05-05T02:24:44.574Z,84.84
2019-05-05T02:27:14.591Z,84.43
2019-05-05T02:30:06.160Z,84.37
2019-05-05T02:32:40.089Z,84.55
2019-05-05T02:35:11.645Z,83.94
2019-05-05T02:37:40.566Z,84.15
2019-05-05T02:40:10.467Z,83.94
2019-05-05T02:42:39.806Z,84.04
2019-05-05T02:45:11.209Z,83.87
2019-05-05T02:47:57.689Z,84.20
2019-05-05T02:50:46.555Z,84.02
2019-05-05T02:53:04.011Z,84.05
2019-05-05T02:55:34.806Z,83.68
2019-05-05T02:58:03.979Z,84.11
2019-05-05T03:01:00.651Z,84.73
2019-05-05T03:03:31.817Z,84.16
2019-05-05T03:06:00.877Z,83.97
2019-05-05T03:08:30.855Z,83.89
2019-05-05T03:11:01.081Z,84.17
2019-05-05T03:13:31.080Z,83.77
2019-05-05T03:16:14.192Z,83.89
2019-05-05T03:18:45.919Z,84.36
2019-05-05T03:21:15.032Z,83.80
2019-05-05T03:23:44.153Z,84.17
2019-05-05T03:26:14.057Z,84.09
2019-05-05T03:28:47.236Z,84.76
2019-05-05T03:31:17.313Z,84.79
2019-05-05T03:33:46.726Z,84.82
2019-05-05T03:36:15.887Z,85.22
2019-05-05T03:38:44.902Z,84.99
2019-05-05T03:41:21.310Z,85.49
2019-05-05T03:44:27.309Z,85.41
2019-05-05T03:46:56.373Z,85.79
2019-05-05T03:49:25.427Z,85.53
2019-05-05T03:51:54.491Z,84.74
2019-05-05T03:54:23.939Z,84.14
2019-05-05T03:57:07.942Z,84.98
2019-05-05T03:59:37.852Z,85.45
2019-05-05T04:02:14.267Z,85.32
2019-05-05T04:04:46.594Z,85.30
2019-05-05T04:07:15.484Z,85.03
2019-05-05T04:09:45.027Z,84.68
2019-05-05T04:12:14.484Z,85.41
2019-05-05T04:14:45.407Z,85.58
2019-05-05T04:17:48.692Z,85.78
2019-05-05T04:20:29.039Z,85.46
2019-05-05T04:22:58.340Z,85.83
2019-05-05T04:25:27.342Z,86.16
2019-05-05T04:27:56.315Z,85.87
2019-05-05T04:30:25.124Z,84.58
2019-05-05T04:32:54.707Z,84.31
2019-05-05T04:35:24.603Z,84.59
2019-05-05T04:37:54.284Z,84.28
2019-05-05T04:40:24.083Z,83.78
2019-05-05T04:42:54.704Z,83.56
2019-05-05T04:45:25.694Z,84.29
2019-05-05T04:47:58.979Z,84.13
2019-05-05T04:51:02.287Z,83.96
2019-05-05T04:53:43.836Z,83.41
2019-05-05T04:56:14.140Z,84.29
2019-05-05T04:58:44.018Z,82.86
2019-05-05T05:01:13.679Z,83.83
2019-05-05T05:03:59.086Z,83.80
2019-05-05T05:06:34.197Z,84.00
2019-05-05T05:09:04.061Z,82.74
2019-05-05T05:11:33.657Z,82.17
2019-05-05T05:14:03.893Z,82.21
2019-05-05T05:16:32.818Z,82.15
2019-05-05T05:19:01.923Z,82.67
2019-05-05T05:21:30.853Z,81.58
2019-05-05T05:23:59.814Z,81.45
2019-05-05T05:26:29.081Z,82.99
2019-05-05T05:28:57.990Z,83.66
2019-05-05T05:31:26.845Z,82.87
2019-05-05T05:33:56.125Z,83.21
2019-05-05T05:36:25.082Z,83.32
2019-05-05T05:38:56.200Z,82.77
2019-05-05T05:41:47.409Z,82.79
2019-05-05T05:44:26.378Z,81.91
2019-05-05T05:47:17.061Z,81.33
2019-05-05T05:49:58.050Z,81.80
2019-05-05T05:52:26.933Z,80.43
2019-05-05T05:54:55.760Z,81.09
2019-05-05T05:57:24.638Z,80.58
2019-05-05T05:59:54.870Z,81.06
2019-05-05T06:02:24.248Z,81.29
2019-05-05T06:04:53.965Z,79.15
2019-05-05T06:07:24.497Z,78.66
2019-05-05T06:09:54.171Z,79.08
2019-05-05T06:12:24.560Z,77.96
2019-05-05T06:14:54.557Z,77.03
2019-05-05T06:17:23.822Z,76.45
2019-05-05T06:19:53.462Z,74.20
2019-05-05T06:22:29.396Z,74.41
2019-05-05T06:24:54.085Z,72.66
2019-05-05T06:27:23.625Z,69.74
2019-05-05T06:29:54.262Z,70.76
2019-05-05T06:32:26.484Z,68.74
2019-05-05T06:34:55.500Z,67.98
2019-05-05T06:37:24.761Z,64.67
2019-05-05T06:39:56.267Z,66.06
2019-05-05T06:42:43.545Z,65.74
2019-05-05T06:45:23.970Z,64.80
2019-05-05T06:47:53.704Z,65.51
2019-05-05T06:50:24.281Z,65.86
2019-05-05T06:52:54.299Z,66.93
2019-05-05T06:55:25.274Z,67.79
2019-05-05T06:57:54.478Z,66.70
2019-05-05T07:00:28.585Z,69.69
2019-05-05T07:05:34.118Z,65.30
2019-05-05T07:08:04.470Z,62.43
2019-05-05T07:10:33.992Z,60.41
2019-05-05T07:13:05.023Z,60.69
2019-05-05T07:15:34.387Z,61.79
2019-05-05T07:18:03.782Z,59.40
2019-05-05T07:20:34.694Z,62.21
2019-05-05T07:25:42.754Z,63.34
2019-05-05T07:28:10.195Z,64.14
2019-05-05T07:30:39.737Z,63.49
2019-05-05T07:33:11.195Z,66.69
2019-05-05T07:35:55.999Z,67.43
2019-05-05T07:38:16.467Z,68.08
2019-05-05T07:43:28.654Z,67.68
2019-05-05T07:45:57.699Z,67.14
2019-05-05T07:48:26.811Z,67.82
2019-05-05T07:51:01.482Z,69.46
2019-05-05T07:53:26.983Z,69.86
2019-05-05T07:55:54.996Z,66.67
2019-05-05T07:58:28.924Z,68.78
2019-05-05T08:00:58.226Z,67.62
2019-05-05T08:03:27.907Z,68.41
2019-05-05T08:05:57.210Z,67.37
2019-05-05T08:08:26.376Z,70.12
2019-05-05T08:10:55.622Z,67.88
2019-05-05T08:13:24.841Z,69.50
2019-05-05T08:15:59.803Z,67.98
2019-05-05T08:18:46.891Z,70.51
2019-05-05T08:21:16.610Z,68.55
2019-05-05T08:24:05.979Z,66.74
2019-05-05T08:26:50.141Z,67.22
2019-05-05T08:29:34.588Z,63.89
2019-05-05T08:32:16.160Z,62.27
2019-05-05T08:34:56.856Z,62.52
2019-05-05T08:37:16.579Z,63.88
2019-05-05T08:39:47.038Z,67.54
2019-05-05T08:42:17.273Z,61.87
2019-05-05T08:44:46.848Z,61.53
2019-05-05T08:47:16.121Z,61.51
2019-05-05T08:49:45.416Z,62.30
2019-05-05T08:54:56.160Z,61.05
2019-05-05T08:57:26.809Z,63.63
2019-05-05T08:59:55.890Z,61.66
2019-05-05T09:02:24.881Z,63.55
2019-05-05T09:04:54.162Z,62.02
2019-05-05T09:07:26.523Z,63.89
2019-05-05T09:09:55.930Z,62.09
2019-05-05T09:12:25.032Z,60.83
2019-05-05T09:14:54.063Z,59.83
2019-05-05T09:17:24.366Z,58.77
2019-05-05T09:19:53.855Z,62.75
2019-05-05T09:22:26.116Z,60.37
2019-05-05T09:25:04.392Z,63.19
2019-05-05T09:30:11.165Z,64.07
2019-05-05T09:32:40.614Z,66.43
2019-05-05T09:35:10.151Z,67.55
2019-05-05T09:37:39.579Z,66.82
2019-05-05T09:40:09.030Z,68.25
2019-05-05T09:42:41.918Z,71.50
2019-05-05T09:45:14.026Z,71.54
2019-05-05T09:47:46.307Z,71.86
2019-05-05T09:50:18.885Z,69.57
2019-05-05T09:52:51.090Z,68.65
2019-05-05T09:55:26.288Z,67.32
2019-05-05T09:57:56.185Z,70.02
2019-05-05T10:00:31.241Z,70.62
2019-05-05T10:03:00.609Z,70.76
2019-05-05T10:05:30.033Z,70.11
2019-05-05T10:08:06.560Z,73.03
2019-05-05T10:10:38.797Z,72.84
2019-05-05T10:13:08.466Z,71.57
2019-05-05T10:15:46.493Z,70.68
2019-05-05T10:18:33.744Z,71.92
2019-05-05T10:21:08.833Z,69.94
2019-05-05T10:23:40.879Z,69.29
2019-05-05T10:26:14.966Z,68.48
2019-05-05T10:28:45.249Z,65.98
2019-05-05T10:31:14.236Z,64.10
2019-05-05T10:33:48.855Z,64.67
2019-05-05T10:36:18.794Z,60.98
2019-05-05T10:38:51.331Z,61.90
2019-05-05T10:41:20.090Z,63.34
2019-05-05T10:43:49.152Z,64.70
2019-05-05T10:46:18.151Z,66.10
2019-05-05T10:48:46.978Z,65.48
2019-05-05T10:51:15.869Z,63.90
2019-05-05T10:53:44.660Z,64.69
2019-05-05T10:56:14.487Z,59.36
2019-05-05T10:58:44.166Z,61.67
2019-05-05T11:01:14.527Z,59.61
2019-05-05T11:03:44.683Z,59.36
2019-05-05T11:06:14.880Z,59.14
2019-05-05T11:08:45.177Z,61.81
2019-05-05T11:11:14.149Z,63.61
2019-05-05T11:13:45.567Z,65.89
2019-05-05T11:16:14.509Z,65.82
2019-05-05T11:18:43.352Z,62.90
2019-05-05T11:21:14.322Z,63.42
2019-05-05T11:23:44.746Z,63.08
2019-05-05T11:26:14.316Z,60.60
2019-05-05T11:28:44.538Z,61.52
2019-05-05T11:31:13.801Z,61.00
2019-05-05T11:33:54.182Z,59.99
2019-05-05T11:36:30.255Z,59.24
2019-05-05T11:38:59.254Z,59.55
2019-05-05T11:41:29.964Z,57.20
2019-05-05T11:44:04.117Z,58.25
2019-05-05T11:46:34.918Z,59.19
2019-05-05T11:49:24.293Z,57.64
2019-05-05T11:51:54.201Z,58.79
2019-05-05T11:54:28.550Z,59.44
2019-05-05T11:56:58.601Z,58.30
2019-05-05T11:59:27.656Z,60.63
2019-05-05T12:01:56.951Z,61.96
2019-05-05T12:04:26.003Z,59.12
2019-05-05T12:06:58.118Z,61.61
2019-05-05T12:09:39.884Z,62.26
2019-05-05T12:12:08.990Z,60.75
2019-05-05T12:14:38.480Z,61.63
2019-05-05T12:17:08.387Z,64.10
2019-05-05T12:19:37.491Z,61.17
2019-05-05T12:22:08.887Z,60.26
2019-05-05T12:24:44.320Z,62.75
2019-05-05T12:27:30.649Z,62.78
2019-05-05T12:30:09.411Z,61.73
2019-05-05T12:32:40.523Z,58.66
2019-05-05T12:35:09.265Z,63.45
2019-05-05T12:37:44.543Z,61.80
2019-05-05T12:40:14.289Z,61.71
2019-05-05T12:42:43.988Z,59.42
2019-05-05T12:45:16.567Z,54.78
2019-05-05T12:50:24.507Z,55.70
2019-05-05T12:52:54.887Z,54.71
2019-05-05T12:55:38.341Z,57.16
2019-05-05T12:57:57.512Z,57.89
2019-05-05T13:00:29.903Z,56.96
2019-05-05T13:02:58.802Z,51.87
2019-05-05T13:05:27.661Z,53.79
2019-05-05T13:07:56.460Z,51.81
2019-05-05T13:10:26.648Z,52.06
2019-05-05T13:12:55.566Z,47.97
2019-05-05T13:15:25.917Z,51.85
2019-05-05T13:17:55.213Z,51.01
2019-05-05T13:20:36.874Z,51.49
2019-05-05T13:23:25.246Z,52.69
2019-05-05T13:26:04.400Z,51.63
2019-05-05T13:28:34.430Z,55.80
2019-05-05T13:31:04.716Z,57.04
2019-05-05T13:33:37.066Z,60.18
2019-05-05T13:36:04.755Z,64.23
2019-05-05T13:38:34.395Z,64.97
2019-05-05T13:41:03.814Z,64.18
2019-05-05T13:43:34.224Z,66.44
2019-05-05T13:46:17.815Z,65.72
2019-05-05T13:48:46.769Z,62.37
2019-05-05T13:51:16.171Z,59.89
2019-05-05T13:53:45.198Z,60.34
2019-05-05T13:56:15.336Z,59.85
2019-05-05T13:58:44.527Z,62.10
2019-05-05T14:01:14.480Z,60.27
2019-05-05T14:03:44.701Z,59.55
2019-05-05T14:06:14.000Z,58.54
2019-05-05T14:08:44.782Z,55.05
2019-05-05T14:11:17.022Z,58.79
2019-05-05T14:13:48.528Z,56.70
2019-05-05T14:16:16.617Z,56.44
2019-05-05T14:18:45.495Z,53.53
2019-05-05T14:21:15.411Z,56.02
2019-05-05T14:24:03.821Z,57.75
2019-05-05T14:26:35.181Z,52.57
2019-05-05T14:29:04.277Z,53.16
2019-05-05T14:31:36.665Z,53.80
2019-05-05T14:34:13.972Z,53.77
2019-05-05T14:37:11.059Z,56.29
2019-05-05T14:39:39.828Z,53.80
2019-05-05T14:42:09.279Z,50.83
2019-05-05T14:44:38.325Z,50.70
2019-05-05T14:47:07.216Z,53.83
2019-05-05T14:49:36.079Z,52.82
2019-05-05T14:52:06.069Z,51.61
2019-05-05T14:54:34.982Z,50.69
2019-05-05T14:57:04.534Z,49.17
2019-05-05T14:59:34.078Z,49.08
2019-05-05T15:02:04.226Z,51.31
2019-05-05T15:04:37.073Z,48.45
2019-05-05T15:07:15.320Z,52.32
2019-05-05T15:09:54.631Z,50.93
2019-05-05T15:12:28.485Z,52.18
2019-05-05T15:14:57.333Z,48.72
2019-05-05T15:17:26.552Z,52.28
2019-05-05T15:19:55.330Z,51.61
2019-05-05T15:22:24.245Z,53.86
2019-05-05T15:24:53.706Z,52.38
2019-05-05T15:27:24.221Z,51.35
2019-05-05T15:29:54.300Z,48.22
2019-05-05T15:32:24.315Z,49.89
2019-05-05T15:34:54.523Z,51.35
2019-05-05T15:37:23.893Z,52.72
2019-05-05T15:39:53.564Z,49.77
2019-05-05T15:42:22.511Z,51.16
2019-05-05T15:44:51.494Z,51.29
2019-05-05T15:47:20.395Z,48.93
2019-05-05T15:49:49.321Z,52.50
2019-05-05T15:52:20.162Z,50.55
2019-05-05T15:54:48.768Z,50.95
2019-05-05T15:57:19.062Z,50.83
2019-05-05T15:59:47.981Z,51.62
2019-05-05T16:02:16.944Z,54.54
2019-05-05T16:04:45.973Z,49.91
2019-05-05T16:07:14.971Z,51.55
2019-05-05T16:09:46.724Z,53.74
2019-05-05T16:12:14.912Z,50.61
2019-05-05T16:14:55.053Z,51.56
2019-05-05T16:17:39.578Z,51.51
2019-05-05T16:20:13.915Z,53.71
2019-05-05T16:23:10.956Z,53.21
2019-05-05T16:25:41.789Z,53.19
2019-05-05T16:28:10.937Z,50.93
2019-05-05T16:30:40.263Z,49.99
2019-05-05T16:33:09.111Z,51.20
2019-05-05T16:35:38.095Z,51.83
2019-05-05T16:38:07.470Z,49.04
2019-05-05T16:40:36.549Z,50.25
2019-05-05T16:43:05.815Z,48.41
2019-05-05T16:45:34.889Z,49.11
2019-05-05T16:48:04.036Z,48.97
2019-05-05T16:50:34.067Z,51.33
2019-05-05T16:53:05.154Z,49.11
2019-05-05T16:55:41.820Z,50.17
2019-05-05T16:58:13.767Z,48.18
2019-05-05T17:00:44.161Z,50.43
2019-05-05T17:03:13.561Z,51.50
2019-05-05T17:05:46.371Z,49.13
2019-05-05T17:08:15.390Z,48.85
2019-05-05T17:10:44.344Z,50.81
2019-05-05T17:13:38.568Z,51.21
2019-05-05T17:16:22.613Z,49.94
2019-05-05T17:18:57.291Z,46.91
2019-05-05T17:21:45.210Z,48.95
2019-05-05T17:24:18.048Z,50.59
2019-05-05T17:26:46.405Z,49.16
2019-05-05T17:29:15.676Z,50.40
2019-05-05T17:31:44.664Z,51.70
2019-05-05T17:34:13.883Z,54.06
2019-05-05T17:36:42.774Z,52.89
2019-05-05T17:39:11.810Z,51.42
2019-05-05T17:42:03.241Z,52.92
2019-05-05T17:44:48.136Z,51.30
2019-05-05T17:47:21.020Z,52.06
2019-05-05T17:50:15.892Z,52.13
2019-05-05T17:53:09.381Z,51.31
2019-05-05T17:55:41.189Z,53.25
2019-05-05T17:58:10.362Z,50.65
2019-05-05T18:00:47.146Z,49.97
2019-05-05T18:03:17.450Z,51.29
2019-05-05T18:06:29.236Z,51.11
2019-05-05T18:09:10.426Z,52.56
2019-05-05T18:11:57.061Z,53.23
2019-05-05T18:14:26.540Z,53.34
2019-05-05T18:16:55.558Z,51.43
2019-05-05T18:19:24.774Z,53.98
2019-05-05T18:21:54.761Z,56.29
2019-05-05T18:24:24.397Z,55.37
2019-05-05T18:26:55.355Z,53.06
2019-05-05T18:29:24.520Z,55.18
2019-05-05T18:31:53.727Z,56.55
2019-05-05T18:34:23.615Z,55.31
2019-05-05T18:36:54.469Z,53.31
2019-05-05T18:39:24.739Z,54.51
2019-05-05T18:42:08.049Z,53.96
2019-05-05T18:44:41.046Z,58.03
2019-05-05T18:47:17.988Z,54.87
2019-05-05T18:49:46.551Z,56.71
2019-05-05T18:52:15.539Z,53.18
2019-05-05T18:54:45.511Z,57.28
2019-05-05T18:57:14.627Z,56.94
2019-05-05T18:59:44.686Z,56.86
2019-05-05T19:02:46.107Z,57.56
2019-05-05T19:05:44.048Z,57.13
2019-05-05T19:08:51.779Z,57.72
2019-05-05T19:11:12.172Z,57.63
2019-05-05T19:13:41.592Z,58.62
2019-05-05T19:16:10.535Z,59.55
2019-05-05T19:18:39.549Z,58.20
2019-05-05T19:21:25.799Z,59.51
2019-05-05T19:23:54.986Z,58.42
2019-05-05T19:26:25.392Z,59.29
2019-05-05T19:28:54.792Z,59.22
2019-05-05T19:31:24.892Z,60.53
2019-05-05T19:33:55.918Z,60.82
2019-05-05T19:36:27.378Z,60.64
2019-05-05T19:38:56.596Z,59.75
2019-05-05T19:41:31.958Z,61.75
2019-05-05T19:44:04.509Z,61.00
2019-05-05T19:46:38.970Z,61.28
2019-05-05T19:49:16.984Z,62.15
2019-05-05T19:51:54.159Z,61.60
2019-05-05T19:54:34.046Z,64.70
2019-05-05T19:57:05.123Z,63.28
2019-05-05T19:59:36.252Z,61.03
2019-05-05T20:02:05.683Z,63.12
2019-05-05T20:04:35.667Z,61.54
2019-05-05T20:07:06.753Z,61.09
2019-05-05T20:09:47.202Z,65.02
2019-05-05T20:12:22.050Z,62.45
2019-05-05T20:14:51.287Z,63.93
2019-05-05T20:17:29.765Z,63.51
2019-05-05T20:20:06.326Z,63.43
2019-05-05T20:22:40.615Z,66.22
2019-05-05T20:25:09.920Z,65.41
2019-05-05T20:27:40.773Z,66.16
2019-05-05T20:30:11.307Z,67.04
2019-05-05T20:32:56.087Z,66.50
2019-05-05T20:35:29.288Z,66.64
2019-05-05T20:38:04.704Z,67.46
2019-05-05T20:40:36.342Z,68.23
2019-05-05T20:43:06.553Z,68.38
2019-05-05T20:45:37.266Z,69.18
2019-05-05T20:48:06.518Z,68.69
2019-05-05T20:50:44.105Z,69.29
2019-05-05T20:53:13.645Z,69.59
2019-05-05T20:55:44.704Z,70.73
2019-05-05T20:58:19.483Z,69.33
2019-05-05T21:00:55.007Z,69.88
2019-05-05T21:03:25.105Z,70.34
2019-05-05T21:05:55.091Z,71.38
2019-05-05T21:08:24.064Z,70.90
2019-05-05T21:10:53.774Z,70.55
2019-05-05T21:13:22.654Z,70.11
2019-05-05T21:15:53.758Z,70.83
2019-05-05T21:18:24.357Z,70.67
2019-05-05T21:21:01.590Z,70.55
2019-05-05T21:23:39.025Z,70.69
2019-05-05T21:26:17.842Z,71.99
2019-05-05T21:28:53.803Z,73.21
2019-05-05T21:31:23.972Z,73.83
2019-05-05T21:33:58.962Z,72.93
2019-05-05T21:36:28.146Z,72.62
2019-05-05T21:38:58.179Z,73.50
2019-05-05T21:41:27.074Z,73.82
2019-05-05T21:43:56.072Z,74.56
2019-05-05T21:46:27.037Z,74.86
2019-05-05T21:48:57.023Z,75.10
2019-05-05T21:51:43.637Z,74.90
2019-05-05T21:54:30.678Z,75.61
2019-05-05T21:57:24.320Z,76.09
2019-05-05T21:59:58.045Z,75.08
2019-05-05T22:02:23.982Z,76.51
2019-05-05T22:04:54.340Z,76.20
2019-05-05T22:07:24.105Z,76.37
2019-05-05T22:09:54.452Z,76.76
2019-05-05T22:12:24.351Z,76.75
2019-05-05T22:14:55.104Z,76.92
2019-05-05T22:17:24.080Z,77.90
2019-05-05T22:20:04.067Z,78.15
2019-05-05T22:22:36.467Z,78.12
2019-05-05T22:25:05.440Z,78.85
2019-05-05T22:27:34.672Z,78.03
2019-05-05T22:30:10.171Z,77.92
2019-05-05T22:32:34.449Z,78.15
2019-05-05T22:35:03.421Z,78.72
2019-05-05T22:37:34.350Z,79.39
2019-05-05T22:40:03.074Z,80.03
2019-05-05T22:42:34.112Z,79.88
2019-05-05T22:45:04.459Z,80.20
2019-05-05T22:47:34.542Z,80.30
2019-05-05T22:50:04.462Z,79.93
2019-05-05T22:52:34.516Z,79.97
2019-05-05T22:55:04.583Z,80.16
2019-05-05T22:57:34.507Z,79.66
2019-05-05T23:00:03.847Z,80.01
2019-05-05T23:02:35.177Z,80.01
2019-05-05T23:05:14.721Z,79.85
2019-05-05T23:07:43.881Z,80.35
2019-05-05T23:10:14.060Z,80.35
2019-05-05T23:12:43.988Z,80.02
2019-05-05T23:15:14.494Z,79.82
2019-05-05T23:18:05.088Z,80.42
2019-05-05T23:21:30.195Z,80.17
2019-05-05T23:24:18.234Z,80.06
2019-05-05T23:26:48.155Z,80.09
2019-05-05T23:29:17.052Z,80.47
2019-05-05T23:31:45.808Z,81.25
2019-05-05T23:34:14.871Z,81.33
2019-05-05T23:36:44.402Z,81.62
2019-05-05T23:39:13.634Z,81.62
2019-05-05T23:41:42.550Z,81.62
2019-05-05T23:44:11.755Z,82.31
2019-05-05T23:46:40.934Z,82.06
2019-05-05T23:49:09.794Z,81.59
2019-05-05T23:51:38.628Z,82.17
2019-05-05T23:54:07.666Z,82.19
2019-05-05T23:56:36.586Z,81.70
2019-05-05T23:59:05.498Z,81.70
